Detall de PIREP

Printer-friendly versionPDF version

[2010/06/23 07:55:00]
Flight IATA:CT2106
Pilot Number:011
Company ICAO:CAT
Aircraft Type:B738/F
PAX:160
Departing Airport: LEVC
Destination Airport: LEMD
Alternate Airport:LEMG
Online: VATSIM
Route:CLS UN733 PRADO
Flight Level:FL250
No Slew and time accel
No pause
Crash detect
Detect pilot in Cockpit between each 30 and 45 minutes
07:55 Zero fuel Weight: 134500 Lbs, Fuel Weight: 15086 Lbs
07:55 VATSIM:LEVC 230730Z 32004KT 280V350 9999 FEW025 22/16 Q1018 NOSIG
07:55 VATSIM:LEMD 230730Z 36003KT 310V070 CAVOK 20/06 Q1019 NOSIG
08:01 Parking Brakes off
08:07 Take-off
08:07 Take off Weight: 148703 Lbs
08:07 Wind: 302º @ 004 Knots Heading: 296º
08:07 POS N39º 29´ 22´´ W000º 28´ 56´´
08:07 Flaps:5 at 179 Knots
08:07 Gear Up: 183 Knots
08:08 Flaps:4 at 226 Knots
08:08 Flaps:3 at 230 Knots
08:08 Flaps:2 at 235 Knots
08:09 Flaps:1 at 240 Knots
08:09 Flaps:0 at 240 Knots

08:18 TOC
08:18 Fuel Weight: 11626 Lb
08:21 TOD
08:21 Fuel Weight: 11393 Lb
08:22 Wind:107º@002 Knots Heading: 297º Ground Speed: 426 Knots Altitude 23684 ft
08:31 Flaps:1 at 262 Knots
08:34 Flaps:2 at 258 Knots
08:34 Flaps:3 at 260 Knots
08:34 Flaps:4 at 259 Knots
08:34 Gear Down: 251 Knots
08:35 Flaps:5 at 253 Knots
08:35 Flaps:6 at 249 Knots
08:35 Flaps:7 at 240 Knots
08:35 Flaps:8 at 199 Knots
08:37 Wind:008º@002 Knots Heading: 323º Ground Speed: 148 Knots Altitude 2411 ft
08:37 TouchDown:Rate -265 ft/min Speed: 127 Knots
08:37 VATSIM:LEMD 230800Z 36002KT CAVOK 21/06 Q1019 NOSIG
08:37 Land
08:37 Wind:008º@002 Knots
08:37 Heading: 323º
08:37 Flight Duration: 00:30
08:37 Landing Weight: 145289 Lbs
08:37 POS N40º 29´ 04´´ W003º 32´ 49´´
08:43 Parking brakes on
08:43 Block to Block Duration: 00:42
08:43 Final Fuel: 10337 Lbls
08:43 Spent Fuel: 47
48 Lbls
08:43 Flight Length: 144 NM
08:43 TOD Land Length: 62 NM

Exportar CSV

Powered by Drupal - Modified by Danger4k